Williams, OR

4:35 AM PST on December 21, 2014 (GMT -0800)
Sexton Summit | Change Station
CLOSE
Current Station
Airport
Location: Sexton Summit,
Elevation: 3839 ft
Nearby Weather Stations
Active Advisory: Areal Flood Watch

Elev 3839 ft 42.60 °N, 123.36 °W | Updated 3 minutes ago

Rain
Rain
47 °F
Feels Like 47 °F
N
14
Wind Variable Wind from SSW

Today
High -- | Low -- °F
--% Chance of Precip.
Yesterday
High -- | Low -- °F
Precip. -- in
7:38 AM 4:44 PM
Waning Crescent, 0% visible
Pressure 30.07 in
Visibility 0.2 miles
Clouds
Dew Point 47 °F
Humidity 100%
Rainfall 0.24 in
Snow Depth Not available.
UV Not available.
Pollen .60 out of 12
Air Quality Not available.
Flu Activity Not available.
SPECI KSXT 211232Z AUTO 21012KT 1/4SM -RA FG VV003 08/08 A3007 RMK AO2 P0006 T00830083

More Conditions Fewer Conditions

Pressure 30.07 in
Visibility 0.2 miles
Clouds
Dew Point 47 °F
Humidity 100%
Rainfall 0.24 in
Snow Depth Not available.
UV Not available.
Pollen .60 out of 12
Air Quality Not available.
Flu Activity Not available.
SPECI KSXT 211232Z AUTO 21012KT 1/4SM -RA FG VV003 08/08 A3007 RMK AO2 P0006 T00830083

More Conditions Fewer Conditions

10-Day Weather Forecast

Almanac

Astronomy

Dec. 21, 2014 Rise Set
Actual Time
Civil Twilight
Nautical Twilight
Astronomical Twilight
Moon
Length of Visible Light
Length of Day
Tomorrow will be .
, % of the Moon is Illuminated

Today's Extremes

State Highs State Lows

Community

WunderPhotos

Upload Photos

1,779,372 photos uploaded!

WunderBlogs® & News

Nearby

Air Quality

  Air Quality AQ Index Pollutant
Not available.

Snow Depth

Station Depth Elevation

Earthquake Activity

City Distance Mag. Time & Date
Minimum magnitude displayed is 2.5.

Coastal Water Temperatures

Place Temperature

Nearby Weather Stations